Time;durP1;ratioP1;P1;durP2;ratioP2;P2;SDS_P1;SDS_P2;PMS_P1;PMS_P2;Temp;Humidity;BMP_temperature;BMP_pressure;BME280_temperature;BME280_humidity;BME280_pressure;Samples;Min_cycle;Max_cycle;Signal;HPM_P1;HPM_P2
2021/08/20 00:00:14;;;;;;;7.37;6.30;;;;;;;17.61;64.41;99447.09;1658679;83;21064;-73
2021/08/20 00:02:42;;;;;;;6.90;5.87;;;;;;;17.61;65.70;99444.92;1624678;87;21576;-73
2021/08/20 00:05:10;;;;;;;8.28;6.75;;;;;;;17.60;66.92;99446.83;1624614;87;21606;-73
2021/08/20 00:07:37;;;;;;;8.03;6.75;;;;;;;17.60;67.48;99440.61;1647615;86;21166;-74
2021/08/20 00:10:06;;;;;;;7.80;6.62;;;;;;;17.60;68.29;99452.84;1648223;87;21091;-73
2021/08/20 00:12:34;;;;;;;7.30;6.17;;;;;;;17.62;69.10;99445.98;1648926;86;21507;-74
2021/08/20 00:15:05;;;;;;;7.05;6.20;;;;;;;17.64;69.62;99438.89;1649074;86;21527;-73
2021/08/20 00:17:32;;;;;;;8.08;7.03;;;;;;;17.64;70.39;99432.09;1648958;85;21031;-74
2021/08/20 00:19:58;;;;;;;7.80;6.40;;;;;;;17.63;70.68;99435.91;1649118;85;21087;-74
2021/08/20 00:22:27;;;;;;;7.25;6.33;;;;;;;17.61;71.40;99439.48;1665871;85;20967;-73
2021/08/20 00:24:53;;;;;;;6.85;6.15;;;;;;;17.59;72.27;99432.20;1641418;86;21544;-72
2021/08/20 00:27:20;;;;;;;7.37;6.40;;;;;;;17.57;72.24;99436.53;1666015;85;21087;-71
2021/08/20 00:29:48;;;;;;;7.70;6.92;;;;;;;17.50;74.20;99432.62;1644836;86;21015;-72
2021/08/20 00:32:16;;;;;;;7.83;6.72;;;;;;;17.43;74.67;99440.61;1644821;86;21209;-71
2021/08/20 00:34:43;;;;;;;14.73;8.13;;;;;;;17.42;75.06;99433.55;1620120;87;20968;-72
2021/08/20 00:37:10;;;;;;;7.70;6.90;;;;;;;17.49;74.90;99448.12;1620216;87;21040;-72
2021/08/20 00:39:39;;;;;;;10.08;7.15;;;;;;;17.53;74.87;99446.41;1641263;86;21033;-73
2021/08/20 00:42:10;;;;;;;7.95;7.00;;;;;;;17.50;75.31;99449.73;1641461;86;21617;-74
2021/08/20 00:44:36;;;;;;;8.38;7.47;;;;;;;17.44;75.53;99463.98;1642543;87;21556;-72
2021/08/20 00:47:03;;;;;;;10.63;7.35;;;;;;;17.41;75.96;99461.84;1644935;86;20995;-74
2021/08/20 00:49:30;;;;;;;7.58;6.60;;;;;;;17.37;76.38;99470.34;1619905;87;21563;-73
2021/08/20 00:51:57;;;;;;;7.40;5.85;;;;;;;17.37;76.57;99475.78;1646272;87;21075;-73
2021/08/20 00:54:23;;;;;;;7.20;5.92;;;;;;;17.47;76.08;99476.16;1645584;86;21036;-73
2021/08/20 00:56:49;;;;;;;7.05;6.30;;;;;;;17.54;75.89;99478.48;1629920;87;21088;-73
2021/08/20 00:59:17;;;;;;;9.03;6.80;;;;;;;17.58;75.86;99478.14;1629743;87;21520;-72
2021/08/20 01:01:43;;;;;;;8.05;6.28;;;;;;;17.61;75.82;99478.91;1620513;87;21011;-73
2021/08/20 01:04:10;;;;;;;8.25;5.97;;;;;;;17.64;75.93;99477.78;1644151;86;21524;-73
2021/08/20 01:06:40;;;;;;;7.47;6.42;;;;;;;17.69;75.76;99487.75;1674122;85;21575;-74
2021/08/20 01:09:08;;;;;;;8.35;6.78;;;;;;;17.69;75.91;99480.95;1644752;86;21521;-73
2021/08/20 01:11:35;;;;;;;7.58;6.85;;;;;;;17.68;75.99;99482.87;1644885;86;21585;-73
2021/08/20 01:14:04;;;;;;;6.92;6.00;;;;;;;17.67;75.94;99482.61;1657493;85;20987;-73
2021/08/20 01:16:32;;;;;;;10.43;7.67;;;;;;;17.68;76.01;99491.58;1667362;85;21107;-72
2021/08/20 01:19:00;;;;;;;6.22;5.62;;;;;;;17.68;75.90;99481.51;1642499;86;21027;-72
2021/08/20 01:21:29;;;;;;;7.20;5.72;;;;;;;17.67;75.79;99493.48;1644744;86;21505;-72
2021/08/20 01:23:59;;;;;;;6.95;6.25;;;;;;;17.70;75.90;99493.42;1645182;86;21040;-73
2021/08/20 01:26:29;;;;;;;8.43;7.25;;;;;;;17.72;75.72;99484.42;1644459;87;21046;-73
2021/08/20 01:28:56;;;;;;;11.20;6.97;;;;;;;17.71;75.76;99487.69;1645070;86;21051;-73
2021/08/20 01:31:25;;;;;;;7.83;7.03;;;;;;;17.70;75.85;99498.86;1645339;86;21072;-74
2021/08/20 01:33:53;;;;;;;8.45;7.40;;;;;;;17.68;76.06;99503.27;1645427;87;21791;-75
2021/08/20 01:36:22;;;;;;;6.78;6.00;;;;;;;17.66;76.06;99508.73;1643397;86;21039;-72
2021/08/20 01:38:55;;;;;;;9.05;6.33;;;;;;;17.63;76.17;99512.07;1645787;86;20908;-73
2021/08/20 01:41:25;;;;;;;6.85;6.15;;;;;;;17.57;76.33;99511.32;1646963;86;21005;-72
2021/08/20 01:43:54;;;;;;;8.98;7.12;;;;;;;17.54;76.62;99509.77;1646965;86;21039;-72
2021/08/20 01:46:22;;;;;;;7.67;6.87;;;;;;;17.49;76.94;99518.02;1614107;87;21104;-72
2021/08/20 01:48:51;;;;;;;8.75;6.75;;;;;;;17.45;76.96;99515.09;1646843;86;21091;-73
2021/08/20 01:51:18;;;;;;;7.35;5.35;;;;;;;17.45;77.06;99517.81;1658752;86;21008;-72
2021/08/20 01:53:46;;;;;;;7.12;6.17;;;;;;;17.44;77.03;99511.56;1658805;86;21087;-73
2021/08/20 01:56:24;;;;;;;8.55;6.55;;;;;;;17.44;76.96;99511.56;1644989;86;21019;-72
2021/08/20 01:58:54;;;;;;;9.45;6.53;;;;;;;17.44;76.95;99515.64;1641825;87;21040;-73
2021/08/20 02:01:23;;;;;;;8.83;6.37;;;;;;;17.43;76.88;99517.29;1644662;87;20988;-72
2021/08/20 02:03:50;;;;;;;7.95;5.42;;;;;;;17.40;76.86;99520.06;1643999;87;21575;-73
2021/08/20 02:06:19;;;;;;;6.10;5.35;;;;;;;17.38;76.96;99521.45;1645681;87;21067;-73
2021/08/20 02:08:47;;;;;;;7.33;6.15;;;;;;;17.36;77.03;99517.66;1645576;86;21043;-73
2021/08/20 02:11:14;;;;;;;6.62;5.62;;;;;;;17.36;77.11;99525.82;1645375;86;21081;-73
2021/08/20 02:13:45;;;;;;;6.92;6.17;;;;;;;17.36;77.13;99532.62;1645222;86;20996;-72
2021/08/20 02:16:13;;;;;;;6.47;5.20;;;;;;;17.32;77.15;99528.89;1642660;86;21596;-72
2021/08/20 02:18:40;;;;;;;8.70;6.53;;;;;;;17.31;77.18;99531.34;1663845;84;20984;-72
2021/08/20 02:21:08;;;;;;;5.78;5.22;;;;;;;17.29;77.21;99525.42;1643198;87;20960;-73
2021/08/20 02:23:37;;;;;;;7.15;5.97;;;;;;;17.28;77.17;99530.59;1651428;86;21182;-72
2021/08/20 02:26:06;;;;;;;6.65;5.58;;;;;;;17.26;77.20;99523.86;1651408;86;20998;-71
2021/08/20 02:28:33;;;;;;;6.37;5.70;;;;;;;17.24;77.26;99526.86;1633265;87;21572;-74
2021/08/20 02:31:00;;;;;;;5.12;4.62;;;;;;;17.22;77.40;99533.13;1633189;87;21074;-72
2021/08/20 02:33:26;;;;;;;9.53;5.60;;;;;;;17.20;77.39;99532.64;1646725;86;21019;-74
2021/08/20 02:35:54;;;;;;;6.37;5.58;;;;;;;17.20;77.32;99529.11;1644075;87;21132;-73
2021/08/20 02:38:20;;;;;;;7.45;6.40;;;;;;;17.20;77.27;99526.39;1640982;86;21504;-72
2021/08/20 02:40:46;;;;;;;6.20;5.60;;;;;;;17.18;77.29;99525.88;1642865;87;20951;-73
2021/08/20 02:43:13;;;;;;;6.97;5.62;;;;;;;17.15;77.25;99531.36;1631914;87;20997;-73
2021/08/20 02:45:40;;;;;;;5.30;4.80;;;;;;;17.10;77.21;99527.92;1606024;87;21568;-73
2021/08/20 02:48:08;;;;;;;9.10;5.92;;;;;;;17.07;77.33;99526.61;1663826;85;21229;-73
2021/08/20 02:50:35;;;;;;;6.00;5.30;;;;;;;17.04;77.38;99529.91;1641868;87;20968;-73
2021/08/20 02:53:02;;;;;;;6.53;5.62;;;;;;;17.05;77.28;99538.32;1663631;85;21561;-73
2021/08/20 02:55:30;;;;;;;7.53;5.80;;;;;;;17.04;77.20;99532.62;1672985;83;21591;-73
2021/08/20 02:57:57;;;;;;;7.37;6.15;;;;;;;17.03;77.17;99534.27;1646679;86;21067;-73
2021/08/20 03:00:26;;;;;;;5.62;5.10;;;;;;;16.99;77.24;99535.41;1646107;86;22637;-72
2021/08/20 03:02:54;;;;;;;6.85;5.40;;;;;;;16.95;77.34;99534.39;1645086;86;20987;-71
2021/08/20 03:05:22;;;;;;;5.75;5.22;;;;;;;16.96;77.39;99545.53;1630257;87;21040;-72
2021/08/20 03:07:50;;;;;;;7.92;6.42;;;;;;;16.96;77.42;99543.63;1641738;87;21043;-74
2021/08/20 03:10:18;;;;;;;6.33;5.22;;;;;;;16.94;77.45;99544.45;1651017;85;20972;-72
2021/08/20 03:12:44;;;;;;;6.37;5.47;;;;;;;16.92;77.57;99538.52;1645233;86;21779;-73
2021/08/20 03:15:12;;;;;;;5.95;4.92;;;;;;;16.87;77.73;99542.67;1631931;87;20991;-73
2021/08/20 03:17:39;;;;;;;6.33;5.72;;;;;;;16.84;77.89;99547.87;1659958;85;21674;-73
2021/08/20 03:20:10;;;;;;;7.08;5.08;;;;;;;16.83;78.03;99550.35;1657456;86;20999;-73
2021/08/20 03:22:36;;;;;;;6.70;6.00;;;;;;;16.83;78.08;99548.45;1645168;85;21048;-74
2021/08/20 03:25:06;;;;;;;7.25;5.53;;;;;;;16.78;78.44;99554.50;1641577;87;21081;-74
2021/08/20 03:27:35;;;;;;;11.80;6.20;;;;;;;16.66;78.93;99552.75;1621123;87;20999;-73
2021/08/20 03:30:20;;;;;;;6.55;5.95;;;;;;;16.64;79.08;99548.99;1625050;87;22284;-73
2021/08/20 03:32:52;;;;;;;7.90;5.72;;;;;;;16.68;78.71;99553.28;1641655;87;21008;-73
2021/08/20 03:35:19;;;;;;;6.95;6.25;;;;;;;16.68;78.71;99553.28;1640466;87;21107;-73
2021/08/20 03:37:46;;;;;;;9.28;6.47;;;;;;;16.81;77.93;99556.07;1641522;85;21119;-73
2021/08/20 03:40:16;;;;;;;6.67;6.05;;;;;;;16.84;77.73;99558.73;1648682;85;21091;-74
2021/08/20 03:42:44;;;;;;;5.83;5.30;;;;;;;16.82;77.72;99553.61;1635629;87;21096;-73
2021/08/20 03:45:15;;;;;;;6.80;5.87;;;;;;;16.85;77.72;99561.72;1636000;87;21540;-73
2021/08/20 03:47:44;;;;;;;6.00;5.40;;;;;;;16.96;77.03;99554.48;1639875;87;21028;-73
2021/08/20 03:50:11;;;;;;;8.28;6.45;;;;;;;17.01;76.64;99554.96;1613673;87;21916;-73
2021/08/20 03:52:39;;;;;;;5.80;5.17;;;;;;;17.04;76.39;99561.16;1640799;87;21019;-74
2021/08/20 03:55:08;;;;;;;6.58;5.30;;;;;;;17.03;75.90;99562.25;1639677;87;21651;-76
2021/08/20 03:57:36;;;;;;;5.15;4.75;;;;;;;17.12;75.29;99557.75;1596827;87;21714;-73
2021/08/20 04:00:06;;;;;;;7.47;5.95;;;;;;;17.19;74.82;99554.13;1640738;87;21033;-73
2021/08/20 04:02:36;;;;;;;5.65;5.05;;;;;;;17.25;74.36;99553.49;1641839;86;22232;-73
2021/08/20 04:05:04;;;;;;;8.23;5.53;;;;;;;17.36;73.93;99556.31;1640456;87;21015;-74
2021/08/20 04:07:36;;;;;;;7.22;5.85;;;;;;;17.42;73.33;99561.34;1620785;87;27152;-76
2021/08/20 04:10:09;;;;;;;7.22;5.12;;;;;;;17.50;72.44;99559.06;1635137;87;21819;-73
2021/08/20 04:12:42;;;;;;;5.37;4.67;;;;;;;17.55;71.79;99573.94;1636192;86;20983;-74
2021/08/20 04:15:11;;;;;;;6.47;5.17;;;;;;;17.65;71.68;99563.69;1637229;87;21076;-77
2021/08/20 04:17:37;;;;;;;6.45;4.92;;;;;;;17.80;71.29;99560.69;1639806;86;21016;-75
2021/08/20 04:20:06;;;;;;;6.60;4.90;;;;;;;17.94;71.05;99556.63;1610981;87;21587;-73
2021/08/20 04:22:36;;;;;;;5.47;4.83;;;;;;;18.06;70.43;99558.30;1638005;87;21524;-74
2021/08/20 04:25:06;;;;;;;6.40;4.85;;;;;;;18.12;70.02;99551.66;1641825;87;21040;-74
2021/08/20 04:27:51;;;;;;;6.08;5.30;;;;;;;18.12;70.19;99550.30;1663963;85;21115;-72
2021/08/20 04:30:36;;;;;;;6.67;5.37;;;;;;;18.14;70.11;99549.98;1646383;86;21087;-73
2021/08/20 04:33:13;;;;;;;5.45;4.45;;;;;;;18.16;70.22;99569.55;1632068;86;21099;-72
2021/08/20 04:35:56;;;;;;;;;;;;;;;18.15;69.99;99567.93;1605597;89;21594;-73
2021/08/20 04:38:27;;;;;;;5.62;4.85;;;;;;;18.12;70.36;99572.08;1600178;86;20477;-73
2021/08/20 04:41:12;;;;;;;5.33;3.75;;;;;;;18.11;70.48;99562.30;1641698;85;21135;-75
2021/08/20 04:43:41;;;;;;;9.80;4.50;;;;;;;18.13;70.37;99562.78;1624889;86;20975;-75
2021/08/20 04:46:18;;;;;;;10.15;4.95;;;;;;;18.12;70.24;99565.27;1564300;90;21656;-74
2021/08/20 04:48:50;;;;;;;4.60;4.20;;;;;;;18.14;70.25;99561.67;1626038;85;21074;-74
2021/08/20 04:51:36;;;;;;;5.60;5.05;;;;;;;18.16;70.05;99562.75;1626743;87;21078;-74
2021/08/20 04:54:08;;;;;;;5.80;5.30;;;;;;;18.15;69.83;99560.57;1623892;87;21288;-73
2021/08/20 04:56:39;;;;;;;9.75;5.28;;;;;;;18.13;69.87;99569.58;1622825;85;21492;-74
2021/08/20 04:59:06;;;;;;;5.72;5.12;;;;;;;18.14;69.86;99568.48;1643186;86;21544;-74
2021/08/20 05:01:32;;;;;;;6.35;4.78;;;;;;;18.16;69.39;99564.11;1641794;87;21112;-74
2021/08/20 05:03:59;;;;;;;5.03;3.83;;;;;;;18.17;69.34;99566.53;1663749;85;20991;-74
2021/08/20 05:06:25;;;;;;;6.87;5.37;;;;;;;18.22;69.21;99568.34;1663865;85;21083;-75
2021/08/20 05:08:53;;;;;;;8.20;4.70;;;;;;;18.25;69.05;99556.28;1642210;87;21028;-74
2021/08/20 05:11:19;;;;;;;8.55;5.60;;;;;;;18.32;68.76;99561.89;1646680;87;20983;-73
2021/08/20 05:13:46;;;;;;;6.47;5.47;;;;;;;18.33;68.28;99568.92;1623781;87;21098;-74
2021/08/20 05:16:14;;;;;;;10.05;5.75;;;;;;;18.29;67.98;99557.84;1641757;86;21560;-74
2021/08/20 05:18:41;;;;;;;6.90;5.17;;;;;;;18.26;68.20;99555.73;1645202;87;22453;-73
2021/08/20 05:21:07;;;;;;;5.60;3.85;;;;;;;18.23;67.88;99560.41;1645224;86;20973;-75
2021/08/20 05:23:33;;;;;;;4.87;4.33;;;;;;;18.23;68.25;99558.50;1628807;87;21112;-73
2021/08/20 05:26:00;;;;;;;10.25;5.70;;;;;;;18.20;68.30;99567.28;1669513;85;21118;-74
2021/08/20 05:28:26;;;;;;;8.40;5.90;;;;;;;18.16;68.34;99556.75;1641356;87;20976;-75
2021/08/20 05:30:53;;;;;;;8.23;5.87;;;;;;;18.16;68.29;99560.83;1624201;87;21122;-74
2021/08/20 05:33:19;;;;;;;8.68;6.17;;;;;;;18.18;68.19;99558.59;1613669;87;21536;-74
2021/08/20 05:35:47;;;;;;;7.08;5.30;;;;;;;18.22;68.09;99556.09;1638432;87;21043;-72
2021/08/20 05:38:14;;;;;;;5.87;4.35;;;;;;;18.26;68.05;99558.46;1640953;87;21040;-73
2021/08/20 05:40:41;;;;;;;6.12;5.25;;;;;;;18.35;67.96;99561.27;1623241;87;21541;-74
2021/08/20 05:43:07;;;;;;;5.67;4.65;;;;;;;18.38;67.80;99569.63;1639745;87;21939;-73
2021/08/20 05:45:37;;;;;;;6.50;4.90;;;;;;;18.39;67.71;99563.08;1611416;87;21020;-73
2021/08/20 05:48:07;;;;;;;5.85;5.10;;;;;;;18.41;67.91;99563.59;1636207;87;21007;-73
2021/08/20 05:50:35;;;;;;;6.03;4.30;;;;;;;18.43;68.07;99564.63;1636157;87;21171;-72
2021/08/20 05:53:02;;;;;;;7.10;4.42;;;;;;;18.47;68.09;99557.46;1636740;86;21064;-73
2021/08/20 05:55:31;;;;;;;5.75;5.17;;;;;;;18.52;67.97;99562.25;1637061;87;21521;-73
2021/08/20 05:57:59;;;;;;;8.45;5.00;;;;;;;18.56;68.06;99555.10;1658687;85;21011;-73
2021/08/20 06:00:25;;;;;;;10.05;5.15;;;;;;;18.61;68.14;99554.19;1646825;86;21000;-75
2021/08/20 06:02:54;;;;;;;6.28;4.92;;;;;;;18.65;68.03;99565.55;1634522;87;20983;-73
2021/08/20 06:05:20;;;;;;;6.65;4.60;;;;;;;18.74;68.10;99558.82;1616430;87;21524;-73
2021/08/20 06:07:47;;;;;;;5.65;4.37;;;;;;;18.84;67.91;99562.68;1668292;85;21194;-73
2021/08/20 06:10:15;;;;;;;7.70;4.92;;;;;;;18.95;67.62;99569.48;1640605;86;21544;-74
2021/08/20 06:12:42;;;;;;;7.00;4.87;;;;;;;19.05;66.96;99563.00;1640676;87;21083;-74
2021/08/20 06:15:09;;;;;;;8.00;5.72;;;;;;;19.11;66.94;99559.05;1667470;85;21041;-73
2021/08/20 06:17:36;;;;;;;6.15;4.53;;;;;;;19.15;67.07;99558.11;1638554;87;21656;-73
2021/08/20 06:20:06;;;;;;;5.85;4.42;;;;;;;19.24;67.12;99559.53;1645914;87;20964;-73
2021/08/20 06:22:32;;;;;;;6.53;3.98;;;;;;;19.31;66.25;99553.66;1645041;87;21536;-74
2021/08/20 06:24:59;;;;;;;5.05;3.58;;;;;;;19.40;66.67;99563.51;1635208;86;20982;-73
2021/08/20 06:27:26;;;;;;;5.90;4.12;;;;;;;19.49;66.17;99567.13;1615083;87;21031;-74
2021/08/20 06:29:52;;;;;;;6.22;3.75;;;;;;;19.56;65.79;99558.51;1620607;87;21031;-73
2021/08/20 06:32:18;;;;;;;4.67;3.80;;;;;;;19.60;65.24;99562.22;1643181;87;21503;-72
2021/08/20 06:34:45;;;;;;;4.45;4.05;;;;;;;19.63;64.77;99556.69;1646673;86;22135;-73
2021/08/20 06:37:13;;;;;;;6.72;4.37;;;;;;;19.66;65.05;99556.08;1673556;84;21026;-73
2021/08/20 06:39:40;;;;;;;3.90;3.50;;;;;;;19.72;65.17;99555.61;1633410;86;21065;-72
2021/08/20 06:42:06;;;;;;;4.72;4.10;;;;;;;19.79;65.17;99558.71;1678762;83;21007;-72
2021/08/20 06:44:32;;;;;;;3.77;3.40;;;;;;;19.89;64.95;99557.63;1617389;87;21554;-72
2021/08/20 06:46:59;;;;;;;6.15;3.80;;;;;;;19.97;64.92;99560.39;1676634;85;21071;-73
2021/08/20 06:49:27;;;;;;;7.97;3.83;;;;;;;20.05;63.88;99556.08;1646214;86;21610;-72
2021/08/20 06:51:53;;;;;;;7.10;4.30;;;;;;;20.13;64.07;99560.78;1645473;87;21507;-73
2021/08/20 06:54:19;;;;;;;3.80;3.45;;;;;;;20.20;63.34;99561.11;1643411;86;21043;-73
2021/08/20 06:56:46;;;;;;;4.20;3.42;;;;;;;20.30;63.10;99557.28;1643164;87;21144;-73
2021/08/20 06:59:13;;;;;;;6.42;3.42;;;;;;;20.40;62.50;99553.73;1620070;87;20964;-72
2021/08/20 07:01:39;;;;;;;8.48;3.45;;;;;;;20.50;62.61;99555.36;1644946;86;21063;-72
2021/08/20 07:04:07;;;;;;;4.95;3.22;;;;;;;20.60;62.62;99552.33;1643652;86;21047;-73
2021/08/20 07:06:34;;;;;;;3.42;3.15;;;;;;;20.70;62.28;99552.03;1644071;86;21103;-73
2021/08/20 07:09:01;;;;;;;6.87;3.90;;;;;;;20.81;61.89;99550.56;1644623;86;21196;-73
2021/08/20 07:11:29;;;;;;;3.08;2.85;;;;;;;20.92;61.48;99555.16;1644409;86;21536;-72
2021/08/20 07:13:55;;;;;;;4.58;3.52;;;;;;;21.04;60.82;99558.63;1644209;85;21116;-74
2021/08/20 07:16:22;;;;;;;3.75;3.10;;;;;;;21.13;60.03;99560.27;1645033;86;21095;-74
2021/08/20 07:18:48;;;;;;;3.50;3.20;;;;;;;21.18;58.50;99557.94;1644753;86;21051;-73
2021/08/20 07:21:15;;;;;;;3.40;3.10;;;;;;;21.24;58.67;99549.81;1628077;87;21059;-73
2021/08/20 07:23:42;;;;;;;3.35;3.05;;;;;;;21.27;58.67;99548.59;1644822;85;20967;-73
2021/08/20 07:26:08;;;;;;;4.55;3.08;;;;;;;21.33;59.21;99559.37;1641673;87;21516;-73
2021/08/20 07:28:36;;;;;;;4.78;3.50;;;;;;;21.38;59.16;99553.17;1641423;87;21066;-73
2021/08/20 07:31:03;;;;;;;3.85;3.00;;;;;;;21.46;58.62;99559.74;1641230;87;21631;-73
2021/08/20 07:33:30;;;;;;;3.58;3.27;;;;;;;21.54;58.32;99554.24;1640048;87;21133;-73
2021/08/20 07:35:57;;;;;;;7.42;3.45;;;;;;;21.62;57.21;99558.11;1635906;86;21091;-73
2021/08/20 07:38:23;;;;;;;5.08;3.25;;;;;;;21.70;57.22;99564.12;1636308;85;21023;-73
2021/08/20 07:40:50;;;;;;;3.77;3.05;;;;;;;21.80;56.86;99565.70;1638613;86;21523;-73
2021/08/20 07:43:16;;;;;;;5.00;2.60;;;;;;;21.87;55.89;99563.27;1641402;87;20964;-73
2021/08/20 07:45:42;;;;;;;2.87;2.55;;;;;;;21.96;55.80;99566.25;1637477;87;21238;-73
2021/08/20 07:48:09;;;;;;;4.67;3.25;;;;;;;22.04;55.60;99551.70;1601450;87;21055;-73
2021/08/20 07:50:37;;;;;;;7.15;2.75;;;;;;;22.12;55.36;99554.97;1639137;87;21552;-73
2021/08/20 07:53:04;;;;;;;4.58;2.87;;;;;;;22.18;55.29;99560.50;1639052;86;21031;-73
2021/08/20 07:55:30;;;;;;;3.30;2.98;;;;;;;22.24;55.18;99558.95;1638245;85;21075;-73
2021/08/20 07:57:57;;;;;;;3.75;3.40;;;;;;;22.32;54.77;99552.61;1621125;87;21118;-72
2021/08/20 08:00:28;;;;;;;2.95;2.65;;;;;;;22.34;54.54;99558.58;1641496;87;21012;-74
2021/08/20 08:02:54;;;;;;;4.67;3.27;;;;;;;22.40;54.62;99558.60;1641797;87;21058;-72
2021/08/20 08:05:21;;;;;;;2.65;2.45;;;;;;;22.43;53.80;99556.02;1617865;87;21066;-72
2021/08/20 08:07:48;;;;;;;3.75;2.95;;;;;;;22.45;53.27;99548.81;1641400;86;21047;-73
2021/08/20 08:10:15;;;;;;;3.47;2.95;;;;;;;22.48;53.42;99544.87;1640414;87;21066;-74
2021/08/20 08:12:42;;;;;;;3.77;2.42;;;;;;;22.55;53.11;99534.16;1613765;87;20960;-74
2021/08/20 08:15:09;;;;;;;4.75;2.58;;;;;;;22.56;52.75;99534.41;1613760;87;21533;-74
2021/08/20 08:17:38;;;;;;;3.98;2.45;;;;;;;22.59;52.05;99535.09;1639926;87;20987;-74
2021/08/20 08:20:07;;;;;;;5.33;3.25;;;;;;;22.66;52.13;99528.29;1636737;87;21120;-73
2021/08/20 08:22:33;;;;;;;3.40;2.72;;;;;;;22.73;52.18;99525.86;1637791;87;21140;-74
2021/08/20 08:24:59;;;;;;;4.95;2.70;;;;;;;22.80;52.55;99531.03;1639887;86;21070;-73
2021/08/20 08:27:26;;;;;;;5.17;3.50;;;;;;;22.92;52.10;99536.60;1613667;87;21525;-74
2021/08/20 08:29:52;;;;;;;3.77;3.10;;;;;;;23.00;52.27;99535.72;1613625;87;21048;-74
2021/08/20 08:32:18;;;;;;;3.05;2.67;;;;;;;23.04;51.44;99511.95;1640551;87;21048;-75
2021/08/20 08:34:45;;;;;;;3.08;2.37;;;;;;;23.09;51.72;99538.38;1616002;87;21306;-73
2021/08/20 08:37:13;;;;;;;4.25;2.55;;;;;;;23.09;50.85;99533.45;1642520;87;21050;-74
2021/08/20 08:39:40;;;;;;;3.10;2.80;;;;;;;23.14;50.75;99534.06;1616304;87;20995;-74
2021/08/20 08:42:07;;;;;;;4.47;2.80;;;;;;;23.21;50.49;99529.41;1643168;87;20952;-74
2021/08/20 08:44:35;;;;;;;6.12;2.80;;;;;;;23.27;50.39;99529.41;1642644;87;21564;-73
2021/08/20 08:47:05;;;;;;;5.45;2.90;;;;;;;23.35;50.71;99528.54;1640575;87;21150;-72
2021/08/20 08:49:31;;;;;;;3.27;2.42;;;;;;;23.42;50.51;99537.81;1637973;87;20972;-74
2021/08/20 08:51:58;;;;;;;2.80;2.50;;;;;;;23.57;48.69;99540.52;1639740;85;21575;-74
2021/08/20 08:54:24;;;;;;;4.25;2.40;;;;;;;23.65;48.37;99540.17;1641111;87;21102;-73
2021/08/20 08:56:51;;;;;;;5.20;2.30;;;;;;;23.73;47.97;99520.08;1641565;87;21032;-74
2021/08/20 08:59:17;;;;;;;4.60;2.15;;;;;;;23.65;47.50;99520.95;1618356;87;21044;-74
2021/08/20 09:01:43;;;;;;;3.75;2.30;;;;;;;23.65;48.42;99526.45;1639115;86;20996;-74
2021/08/20 09:04:16;;;;;;;3.87;2.70;;;;;;;23.75;48.69;99538.38;1611224;87;21015;-74
2021/08/20 09:06:45;;;;;;;;;;;;;;;23.87;47.89;99525.47;1638934;87;21018;-75
2021/08/20 09:09:15;;;;;;;6.45;2.30;;;;;;;23.92;47.52;99529.94;1638682;86;20150;-74
2021/08/20 09:11:42;;;;;;;4.05;2.50;;;;;;;23.97;47.18;99533.84;1613800;87;21070;-73
2021/08/20 09:14:09;;;;;;;5.33;3.10;;;;;;;23.96;47.90;99523.18;1640061;86;21010;-73
2021/08/20 09:16:40;;;;;;;4.87;2.77;;;;;;;23.96;48.45;99515.74;1640248;87;21052;-73
2021/08/20 09:19:15;;;;;;;4.30;2.42;;;;;;;24.02;48.73;99559.72;1639135;87;21666;-73
2021/08/20 09:21:46;;;;;;;6.35;3.27;;;;;;;24.07;49.64;99532.59;1640450;87;21107;-74
2021/08/20 09:24:36;;;;;;;3.85;2.83;;;;;;;24.05;49.81;99522.50;1640793;87;21258;-74
2021/08/20 09:27:21;;;;;;;3.90;2.30;;;;;;;24.06;49.61;99529.59;1657786;86;21117;-74
2021/08/20 09:30:07;;;;;;;3.27;2.95;;;;;;;24.07;49.65;99538.08;1636747;86;21355;-74
2021/08/20 09:32:36;;;;;;;5.75;3.47;;;;;;;24.08;49.39;99545.95;1657698;86;21023;-72
2021/08/20 09:35:05;;;;;;;3.67;2.67;;;;;;;24.09;49.68;99532.45;1657536;86;21068;-74
2021/08/20 09:37:31;;;;;;;4.10;3.08;;;;;;;24.08;49.13;99541.03;1680979;85;21757;-74
2021/08/20 09:40:05;;;;;;;5.08;3.40;;;;;;;24.05;49.56;99532.92;1651762;86;20928;-74
2021/08/20 09:42:32;;;;;;;4.33;3.47;;;;;;;24.13;49.35;99541.61;1606255;87;21023;-74
2021/08/20 09:45:19;;;;;;;2.62;2.37;;;;;;;24.22;49.19;99542.92;1631810;86;21089;-74
2021/08/20 09:47:53;;;;;;;5.25;3.35;;;;;;;24.11;48.97;99526.63;1649044;85;21070;-75
2021/08/20 09:50:22;;;;;;;4.28;3.05;;;;;;;24.08;49.50;99537.72;1634689;85;21174;-72
2021/08/20 09:52:48;;;;;;;6.47;3.10;;;;;;;24.17;47.89;99539.03;1635013;86;21030;-73
2021/08/20 09:55:38;;;;;;;3.27;2.47;;;;;;;24.17;48.39;99545.30;1634726;87;21007;-73
2021/08/20 09:58:10;;;;;;;4.30;2.67;;;;;;;24.23;47.46;99548.63;1644518;87;21604;-74
2021/08/20 10:00:37;;;;;;;3.72;2.60;;;;;;;24.30;47.25;99548.87;1613797;88;21062;-74
2021/08/20 10:03:06;;;;;;;2.67;2.47;;;;;;;24.33;45.76;99532.48;1628347;86;21196;-75
2021/08/20 10:05:33;;;;;;;3.10;2.30;;;;;;;24.27;46.30;99528.35;1635081;86;21571;-74
2021/08/20 10:08:01;;;;;;;4.00;2.45;;;;;;;24.30;46.61;99542.80;1636585;87;20963;-75
2021/08/20 10:10:29;;;;;;;2.20;2.00;;;;;;;24.32;46.32;99550.69;1638114;87;21107;-74
2021/08/20 10:12:59;;;;;;;7.90;2.80;;;;;;;24.32;45.85;99553.44;1635108;86;21023;-75
2021/08/20 10:15:25;;;;;;;2.90;2.17;;;;;;;24.33;45.94;99526.98;1638486;87;21853;-75
2021/08/20 10:17:52;;;;;;;2.90;2.60;;;;;;;24.38;46.51;99530.07;1639732;87;21092;-74
2021/08/20 10:20:19;;;;;;;2.67;2.47;;;;;;;24.49;46.60;99524.34;1637644;87;21566;-75
2021/08/20 10:22:45;;;;;;;3.08;2.20;;;;;;;24.58;44.69;99523.63;1622662;87;21038;-74
2021/08/20 10:25:12;;;;;;;4.12;2.47;;;;;;;24.53;44.85;99545.06;1638706;87;21049;-75
2021/08/20 10:27:38;;;;;;;3.98;2.83;;;;;;;24.57;44.89;99529.47;1637505;86;21290;-72
2021/08/20 10:30:06;;;;;;;2.77;2.20;;;;;;;24.67;43.86;99567.50;1637130;86;21054;-73
2021/08/20 10:32:33;;;;;;;2.12;1.87;;;;;;;24.66;43.80;99518.56;1611402;87;21027;-76
2021/08/20 10:34:59;;;;;;;3.87;2.33;;;;;;;24.61;42.60;99509.17;1609387;87;21037;-71
2021/08/20 10:37:30;;;;;;;2.05;1.85;;;;;;;24.56;43.50;99522.36;1633290;85;21527;-72
2021/08/20 10:40:00;;;;;;;4.17;2.22;;;;;;;24.59;43.67;99511.48;1622798;88;21731;-70
2021/08/20 10:42:42;;;;;;;6.30;2.17;;;;;;;24.64;44.07;99502.19;1626985;88;21054;-72
2021/08/20 10:45:12;;;;;;;2.33;1.70;;;;;;;24.71;44.40;99512.02;1626204;87;21124;-72
2021/08/20 10:47:40;;;;;;;2.00;1.80;;;;;;;24.86;43.43;99511.29;1622218;86;21028;-72
2021/08/20 10:50:13;;;;;;;6.72;2.45;;;;;;;24.87;42.64;99511.55;1606890;88;21055;-72
2021/08/20 10:52:42;;;;;;;4.35;2.20;;;;;;;24.84;42.68;99506.72;1621468;88;22128;-71
2021/08/20 10:55:14;;;;;;;6.03;2.15;;;;;;;24.88;43.48;99506.84;1622183;87;20981;-71
2021/08/20 10:57:49;;;;;;;2.67;1.75;;;;;;;25.00;43.64;99517.23;1630993;86;21003;-72
2021/08/20 11:00:23;;;;;;;6.22;2.62;;;;;;;25.03;43.35;99502.78;1637786;86;21073;-72
2021/08/20 11:02:53;;;;;;;6.15;2.05;;;;;;;25.11;42.91;99535.42;1637415;86;21023;-73
2021/08/20 11:05:41;;;;;;;1.77;1.67;;;;;;;25.15;43.34;99522.56;1653675;86;21797;-70
2021/08/20 11:08:32;;;;;;;5.20;2.20;;;;;;;25.13;42.74;99516.02;1609446;88;21108;-72
2021/08/20 11:11:01;;;;;;;3.40;1.80;;;;;;;25.18;42.37;99523.22;1628536;87;21690;-72
2021/08/20 11:13:27;;;;;;;3.02;2.15;;;;;;;25.23;42.26;99522.97;1611491;87;21134;-72
2021/08/20 11:15:55;;;;;;;2.95;2.20;;;;;;;25.30;42.01;99520.43;1634865;87;21016;-74
2021/08/20 11:18:45;;;;;;;2.40;2.12;;;;;;;25.37;41.98;99521.98;1633960;87;21083;-74
2021/08/20 11:21:45;;;;;;;3.10;1.95;;;;;;;25.50;41.83;99522.16;1611802;87;21011;-75
2021/08/20 11:24:20;;;;;;;2.10;2.00;;;;;;;25.63;41.71;99516.02;1633487;87;21102;-71
2021/08/20 11:26:46;;;;;;;4.42;1.90;;;;;;;25.68;39.34;99523.22;1647654;86;21187;-72
2021/08/20 11:29:16;;;;;;;2.75;1.70;;;;;;;25.50;40.18;99518.03;1648651;87;21018;-76
2021/08/20 11:31:43;;;;;;;1.92;1.72;;;;;;;25.48;40.11;99525.03;1624535;86;21884;-77
2021/08/20 11:34:10;;;;;;;3.02;2.02;;;;;;;25.46;39.69;99517.72;1647596;86;21031;-75
2021/08/20 11:36:43;;;;;;;4.53;1.90;;;;;;;25.46;40.02;99506.13;1648623;86;21122;-74
2021/08/20 11:39:13;;;;;;;2.20;2.00;;;;;;;25.45;40.52;99506.47;1627621;87;21046;-69
2021/08/20 11:41:44;;;;;;;2.58;1.90;;;;;;;25.53;39.99;99524.77;1605843;87;21055;-70